createdAt,value
2023-03-17T00:01:55.841Z,5.03
2023-03-17T00:04:24.778Z,5.03
2023-03-17T00:06:53.146Z,5.22
2023-03-17T00:09:22.270Z,4.78
2023-03-17T00:11:50.839Z,5.15
2023-03-17T00:14:19.742Z,5.22
2023-03-17T00:16:51.964Z,5.35
2023-03-17T00:22:00.937Z,4.32
2023-03-17T00:24:29.322Z,4.57
2023-03-17T00:26:56.781Z,4.60
2023-03-17T00:29:24.127Z,5.37
2023-03-17T00:31:51.886Z,5.12
2023-03-17T00:34:22.285Z,5.20
2023-03-17T00:36:51.021Z,4.78
2023-03-17T00:39:18.893Z,4.82
2023-03-17T00:44:14.405Z,4.68
2023-03-17T00:46:42.378Z,5.62
2023-03-17T00:51:47.361Z,4.57
2023-03-17T00:54:15.786Z,4.72
2023-03-17T00:56:44.432Z,4.72
2023-03-17T00:59:39.377Z,4.62
2023-03-17T01:02:13.807Z,4.72
2023-03-17T01:04:45.612Z,4.33
2023-03-17T01:07:15.341Z,4.20
2023-03-17T01:09:43.944Z,4.45
2023-03-17T01:12:14.035Z,4.68
2023-03-17T01:14:41.818Z,4.65
2023-03-17T01:17:15.024Z,4.25
2023-03-17T01:19:43.171Z,4.50
2023-03-17T01:22:11.188Z,4.80
2023-03-17T01:24:39.951Z,4.57
2023-03-17T01:27:07.425Z,4.22
2023-03-17T01:29:35.429Z,4.95
2023-03-17T01:32:02.742Z,4.60
2023-03-17T01:34:30.175Z,5.62
2023-03-17T01:36:58.617Z,4.65
2023-03-17T01:39:27.424Z,4.22
2023-03-17T01:41:57.152Z,4.82
2023-03-17T01:44:25.663Z,4.43
2023-03-17T01:46:54.561Z,4.75
2023-03-17T01:49:28.220Z,4.15
2023-03-17T01:52:10.598Z,4.47
2023-03-17T01:54:41.994Z,4.30
2023-03-17T01:57:16.225Z,4.72
2023-03-17T01:59:47.030Z,4.03
2023-03-17T02:02:17.976Z,4.03
2023-03-17T02:04:45.707Z,4.10
2023-03-17T02:07:14.093Z,4.18
2023-03-17T02:09:41.995Z,4.05
2023-03-17T02:12:10.292Z,4.53
2023-03-17T02:14:37.712Z,3.90
2023-03-17T02:17:05.924Z,4.20
2023-03-17T02:19:34.123Z,3.92
2023-03-17T02:22:02.500Z,4.20
2023-03-17T02:24:43.323Z,4.15
2023-03-17T02:27:20.007Z,3.72
2023-03-17T02:29:47.687Z,3.92
2023-03-17T02:32:17.784Z,3.90
2023-03-17T02:34:48.767Z,4.05
2023-03-17T02:37:17.906Z,3.55
2023-03-17T02:39:46.534Z,3.60
2023-03-17T02:42:14.495Z,4.28
2023-03-17T02:44:42.168Z,4.15
2023-03-17T02:47:09.507Z,3.47
2023-03-17T02:49:37.820Z,3.70
2023-03-17T02:52:06.113Z,3.47
2023-03-17T02:54:34.009Z,4.03
2023-03-17T02:57:01.762Z,3.83
2023-03-17T02:59:29.503Z,3.80
2023-03-17T03:01:56.913Z,4.25
2023-03-17T03:04:24.490Z,3.78
2023-03-17T03:06:52.463Z,3.85
2023-03-17T03:09:20.550Z,4.07
2023-03-17T03:11:48.194Z,4.35
2023-03-17T03:14:16.176Z,3.62
2023-03-17T03:16:43.732Z,3.62
2023-03-17T03:19:11.573Z,4.30
2023-03-17T03:21:39.579Z,3.15
2023-03-17T03:24:07.333Z,4.20
2023-03-17T03:26:35.059Z,3.60
2023-03-17T03:29:03.432Z,3.90
2023-03-17T03:31:30.951Z,3.65
2023-03-17T03:33:58.391Z,3.50
2023-03-17T03:36:26.874Z,3.70
2023-03-17T03:38:54.284Z,3.72
2023-03-17T03:41:21.879Z,4.12
2023-03-17T03:43:49.504Z,3.75
2023-03-17T03:46:16.938Z,3.67
2023-03-17T03:48:44.443Z,3.55
2023-03-17T03:51:12.134Z,3.33
2023-03-17T03:53:39.497Z,3.83
2023-03-17T03:56:07.048Z,4.28
2023-03-17T03:58:34.799Z,4.55
2023-03-17T04:01:06.453Z,3.85
2023-03-17T04:03:34.335Z,4.25
2023-03-17T04:06:01.802Z,3.70
2023-03-17T04:08:29.551Z,3.97
2023-03-17T04:10:57.802Z,3.33
2023-03-17T04:13:25.725Z,3.60
2023-03-17T04:15:53.191Z,3.55
2023-03-17T04:18:20.836Z,3.42
2023-03-17T04:20:48.248Z,3.67
2023-03-17T04:23:15.580Z,3.67
2023-03-17T04:25:43.189Z,3.47
2023-03-17T04:28:11.896Z,3.67
2023-03-17T04:30:39.333Z,3.97
2023-03-17T04:33:07.198Z,4.00
2023-03-17T04:35:34.683Z,3.55
2023-03-17T04:38:02.704Z,3.62
2023-03-17T04:40:30.515Z,4.10
2023-03-17T04:42:58.045Z,4.03
2023-03-17T04:45:25.791Z,4.37
2023-03-17T04:47:53.462Z,3.70
2023-03-17T04:50:20.909Z,3.83
2023-03-17T04:52:48.582Z,4.00
2023-03-17T04:55:16.539Z,4.05
2023-03-17T04:57:44.191Z,4.68
2023-03-17T05:00:12.761Z,4.40
2023-03-17T05:02:41.153Z,5.40
2023-03-17T05:05:08.598Z,4.75
2023-03-17T05:07:36.115Z,4.90
2023-03-17T05:10:05.452Z,5.32
2023-03-17T05:12:33.036Z,5.12
2023-03-17T05:15:00.434Z,5.00
2023-03-17T05:17:28.142Z,4.75
2023-03-17T05:19:55.766Z,5.62
2023-03-17T05:22:23.181Z,5.10
2023-03-17T05:24:50.856Z,5.18
2023-03-17T05:27:18.287Z,5.60
2023-03-17T05:29:45.677Z,5.25
2023-03-17T05:32:13.865Z,5.03
2023-03-17T05:34:41.275Z,5.28
2023-03-17T05:37:08.702Z,6.00
2023-03-17T05:39:36.332Z,6.85
2023-03-17T05:42:03.825Z,7.15
2023-03-17T05:44:31.569Z,8.32
2023-03-17T05:46:59.730Z,10.25
2023-03-17T05:49:28.270Z,10.55
2023-03-17T05:51:55.865Z,9.02
2023-03-17T05:54:24.090Z,8.23
2023-03-17T05:56:51.457Z,8.18
2023-03-17T05:59:18.823Z,9.27
2023-03-17T06:01:46.526Z,9.95
2023-03-17T06:04:14.579Z,9.65
2023-03-17T06:06:41.904Z,11.82
2023-03-17T06:09:09.408Z,19.98
2023-03-17T06:11:38.151Z,14.10
2023-03-17T06:14:06.082Z,14.05
2023-03-17T06:16:33.533Z,16.87
2023-03-17T06:19:02.255Z,16.50
2023-03-17T06:21:29.656Z,15.40
2023-03-17T06:23:57.030Z,16.37
2023-03-17T06:26:24.694Z,15.45
2023-03-17T06:28:52.039Z,17.92
2023-03-17T06:31:19.502Z,17.17
2023-03-17T06:33:47.881Z,16.73
2023-03-17T06:36:15.605Z,14.82
2023-03-17T06:38:43.712Z,15.80
2023-03-17T06:41:11.776Z,14.93
2023-03-17T06:43:39.292Z,14.57
2023-03-17T06:46:07.430Z,13.57
2023-03-17T06:48:35.274Z,9.23
2023-03-17T06:51:02.636Z,6.93
2023-03-17T06:53:30.448Z,6.00
2023-03-17T06:55:58.071Z,6.30
2023-03-17T06:58:26.034Z,7.30
2023-03-17T07:00:54.024Z,9.20
2023-03-17T07:03:22.540Z,6.80
2023-03-17T07:05:50.024Z,5.82
2023-03-17T07:08:17.946Z,6.47
2023-03-17T07:10:48.960Z,5.80
2023-03-17T07:13:16.296Z,5.53
2023-03-17T07:15:45.229Z,6.00
2023-03-17T07:18:13.432Z,5.62
2023-03-17T07:20:41.303Z,5.40
2023-03-17T07:23:22.862Z,5.25
2023-03-17T07:25:51.505Z,5.72
2023-03-17T07:28:19.296Z,5.60
2023-03-17T07:30:48.490Z,5.87
2023-03-17T07:33:17.426Z,5.50
2023-03-17T07:35:44.806Z,4.70
2023-03-17T07:38:12.231Z,5.45
2023-03-17T07:40:39.891Z,4.20
2023-03-17T07:43:07.303Z,4.35
2023-03-17T07:45:36.049Z,3.87
2023-03-17T07:48:05.058Z,3.53
2023-03-17T07:50:35.761Z,3.80
2023-03-17T07:53:04.056Z,3.75
2023-03-17T07:55:32.816Z,4.45
2023-03-17T07:58:00.510Z,3.87
2023-03-17T08:00:29.068Z,4.20
2023-03-17T08:03:09.415Z,4.80
2023-03-17T08:05:37.683Z,4.65
2023-03-17T08:08:06.558Z,4.12
2023-03-17T08:10:34.597Z,4.70
2023-03-17T08:13:02.400Z,4.32
2023-03-17T08:15:31.228Z,3.85
2023-03-17T08:17:58.948Z,4.00
2023-03-17T08:20:26.445Z,3.67
2023-03-17T08:22:54.203Z,3.22
2023-03-17T08:25:21.951Z,4.28
2023-03-17T08:27:49.357Z,4.35
2023-03-17T08:30:17.673Z,3.95
2023-03-17T08:32:45.117Z,3.70
2023-03-17T08:35:16.018Z,3.22
2023-03-17T08:37:44.514Z,3.62
2023-03-17T08:40:18.692Z,3.12
2023-03-17T08:42:47.352Z,3.33
2023-03-17T08:45:16.503Z,4.32
2023-03-17T08:47:44.373Z,5.22
2023-03-17T08:50:18.850Z,4.30
2023-03-17T08:52:46.611Z,3.33
2023-03-17T08:55:15.322Z,2.90
2023-03-17T08:57:44.687Z,3.10
2023-03-17T09:00:16.061Z,2.92
2023-03-17T09:02:44.844Z,2.67
2023-03-17T09:05:14.016Z,2.62
2023-03-17T09:07:41.789Z,2.30
2023-03-17T09:10:10.968Z,2.65
2023-03-17T09:12:38.733Z,2.15
2023-03-17T09:15:07.653Z,2.95
2023-03-17T09:17:35.316Z,4.65
2023-03-17T09:20:02.905Z,3.25
2023-03-17T09:22:31.069Z,2.87
2023-03-17T09:24:59.036Z,2.50
2023-03-17T09:27:26.482Z,2.50
2023-03-17T09:29:53.860Z,2.17
2023-03-17T09:32:21.639Z,2.10
2023-03-17T09:34:51.424Z,2.10
2023-03-17T09:37:18.994Z,2.40
2023-03-17T09:39:46.661Z,2.50
2023-03-17T09:42:30.273Z,2.47
2023-03-17T09:45:21.700Z,2.20
2023-03-17T09:48:00.855Z,2.47
2023-03-17T09:50:32.365Z,2.50
2023-03-17T09:53:03.736Z,2.00
2023-03-17T09:55:33.732Z,2.70
2023-03-17T09:58:03.345Z,2.90
2023-03-17T10:00:31.205Z,2.80
2023-03-17T10:02:59.362Z,2.60
2023-03-17T10:05:32.172Z,2.47
2023-03-17T10:08:29.447Z,3.30
2023-03-17T10:11:26.813Z,3.05
2023-03-17T10:14:02.595Z,2.70
2023-03-17T10:16:54.655Z,2.40
2023-03-17T10:19:43.052Z,2.10
2023-03-17T10:22:31.142Z,2.30
2023-03-17T10:25:03.821Z,2.33
2023-03-17T10:27:36.224Z,2.42
2023-03-17T10:30:06.198Z,2.22
2023-03-17T10:32:37.826Z,2.42
2023-03-17T10:35:06.779Z,2.42
2023-03-17T10:37:36.594Z,2.83
2023-03-17T10:40:10.452Z,2.45
2023-03-17T10:43:10.302Z,2.35
2023-03-17T10:45:44.090Z,3.00
2023-03-17T10:48:18.793Z,2.53
2023-03-17T10:50:48.585Z,2.65
2023-03-17T10:53:28.305Z,2.35
2023-03-17T10:56:02.391Z,2.78
2023-03-17T10:58:46.990Z,3.15
2023-03-17T11:01:27.866Z,2.60
2023-03-17T11:03:56.259Z,2.80
2023-03-17T11:06:33.991Z,2.70
2023-03-17T11:09:09.583Z,2.83
2023-03-17T11:11:48.889Z,2.87
2023-03-17T11:14:19.063Z,2.65
2023-03-17T11:16:54.525Z,2.85
2023-03-17T11:19:36.814Z,2.85
2023-03-17T11:22:11.657Z,2.78
2023-03-17T11:24:48.586Z,2.35
2023-03-17T11:27:27.580Z,3.03
2023-03-17T11:30:21.124Z,3.10
2023-03-17T11:32:57.104Z,2.87
2023-03-17T11:35:52.419Z,2.70
2023-03-17T11:38:26.412Z,2.80
2023-03-17T11:41:12.266Z,2.53
2023-03-17T11:44:15.415Z,3.12
2023-03-17T11:47:02.856Z,2.70
2023-03-17T11:49:40.160Z,2.70
2023-03-17T11:52:21.934Z,3.10
2023-03-17T11:55:21.559Z,2.60
2023-03-17T11:58:05.170Z,2.40
2023-03-17T12:00:34.871Z,2.87
2023-03-17T12:03:11.491Z,2.72
2023-03-17T12:05:39.665Z,2.72
2023-03-17T12:08:40.359Z,2.67
2023-03-17T12:11:10.681Z,2.20
2023-03-17T12:13:48.513Z,2.72
2023-03-17T12:16:21.359Z,2.70
2023-03-17T12:19:25.274Z,3.00
2023-03-17T12:21:56.652Z,2.45
2023-03-17T12:24:32.561Z,2.72
2023-03-17T12:27:04.449Z,2.90
2023-03-17T12:29:53.369Z,2.85
2023-03-17T12:32:40.326Z,2.78
2023-03-17T12:35:32.064Z,2.42
2023-03-17T12:38:02.996Z,3.08
2023-03-17T12:40:51.286Z,2.78
2023-03-17T12:44:03.175Z,3.17
2023-03-17T12:46:54.961Z,2.42
2023-03-17T12:49:37.733Z,3.30
2023-03-17T12:52:34.684Z,2.28
2023-03-17T12:55:03.856Z,2.67
2023-03-17T12:57:39.895Z,2.95
2023-03-17T13:00:28.305Z,2.95
2023-03-17T13:03:22.533Z,2.55
2023-03-17T13:05:52.839Z,2.75
2023-03-17T13:08:43.834Z,2.80
2023-03-17T13:11:22.046Z,2.67
2023-03-17T13:13:49.664Z,2.97
2023-03-17T13:16:39.355Z,2.62
2023-03-17T13:19:15.331Z,2.37
2023-03-17T13:22:05.619Z,2.50
2023-03-17T13:24:49.351Z,2.78
2023-03-17T13:27:32.095Z,2.60
2023-03-17T13:30:39.922Z,2.65
2023-03-17T13:33:10.147Z,2.97
2023-03-17T13:36:05.664Z,2.70
2023-03-17T13:39:09.881Z,2.53
2023-03-17T13:42:05.564Z,3.37
2023-03-17T13:45:09.826Z,2.85
2023-03-17T13:47:42.212Z,2.62
2023-03-17T13:50:21.483Z,10.45
2023-03-17T13:52:52.976Z,39.95
2023-03-17T13:55:20.508Z,34.08
2023-03-17T13:58:08.265Z,7.70
2023-03-17T14:00:43.751Z,4.93
2023-03-17T14:03:20.688Z,2.65
2023-03-17T14:05:49.713Z,2.87
2023-03-17T14:08:33.950Z,2.97
2023-03-17T14:11:16.518Z,3.08
2023-03-17T14:13:52.549Z,7.18
2023-03-17T14:16:26.961Z,3.05
2023-03-17T14:18:59.638Z,2.83
2023-03-17T14:21:33.833Z,2.58
2023-03-17T14:24:12.194Z,2.78
2023-03-17T14:26:39.593Z,2.85
2023-03-17T14:29:07.513Z,3.00
2023-03-17T14:31:34.973Z,3.37
2023-03-17T14:34:02.436Z,2.70
2023-03-17T14:36:33.593Z,2.33
2023-03-17T14:39:01.025Z,2.45
2023-03-17T14:41:29.276Z,3.53
2023-03-17T14:43:58.728Z,6.50
2023-03-17T14:46:37.233Z,2.92
2023-03-17T14:49:15.786Z,2.33
2023-03-17T14:51:43.537Z,2.40
2023-03-17T14:54:22.822Z,2.53
2023-03-17T14:57:00.058Z,2.72
2023-03-17T14:59:33.545Z,2.70
2023-03-17T15:02:04.044Z,2.70
2023-03-17T15:04:33.935Z,3.22
2023-03-17T15:07:03.816Z,3.80
2023-03-17T15:09:34.354Z,4.40
2023-03-17T15:12:13.160Z,4.50
2023-03-17T15:14:41.042Z,3.40
2023-03-17T15:17:36.117Z,2.87
2023-03-17T15:20:14.322Z,2.90
2023-03-17T15:22:44.507Z,3.28
2023-03-17T15:25:17.853Z,2.42
2023-03-17T15:27:46.421Z,2.90
2023-03-17T15:30:14.801Z,3.35
2023-03-17T15:32:42.232Z,3.42
2023-03-17T15:35:13.880Z,3.80
2023-03-17T15:37:41.682Z,3.87
2023-03-17T15:40:09.691Z,3.40
2023-03-17T15:42:39.425Z,3.33
2023-03-17T15:45:07.885Z,3.42
2023-03-17T15:47:36.972Z,4.35
2023-03-17T15:50:23.855Z,4.37
2023-03-17T15:52:56.165Z,2.95
2023-03-17T15:55:29.693Z,2.40
2023-03-17T15:57:58.113Z,3.50
2023-03-17T16:00:29.419Z,3.42
2023-03-17T16:03:00.143Z,3.67
2023-03-17T16:05:29.828Z,3.40
2023-03-17T16:07:57.743Z,3.40
2023-03-17T16:10:27.785Z,3.00
2023-03-17T16:12:55.243Z,2.83
2023-03-17T16:15:28.021Z,4.18
2023-03-17T16:17:59.173Z,4.78
2023-03-17T16:20:31.423Z,4.43
2023-03-17T16:23:14.684Z,3.75
2023-03-17T16:25:42.734Z,4.45
2023-03-17T16:28:16.729Z,5.00
2023-03-17T16:30:44.844Z,3.53
2023-03-17T16:33:16.610Z,3.80
2023-03-17T16:35:44.291Z,3.07
2023-03-17T16:38:13.720Z,3.75
2023-03-17T16:40:41.708Z,3.90
2023-03-17T16:43:28.519Z,3.72
2023-03-17T16:46:00.424Z,3.60
2023-03-17T16:48:27.940Z,3.40
2023-03-17T16:50:56.129Z,3.60
2023-03-17T16:53:24.176Z,3.58
2023-03-17T16:55:52.481Z,3.80
2023-03-17T16:58:25.562Z,4.00
2023-03-17T17:00:57.525Z,3.42
2023-03-17T17:03:25.508Z,3.95
2023-03-17T17:05:53.169Z,4.20
2023-03-17T17:08:20.529Z,5.05
2023-03-17T17:10:48.169Z,4.32
2023-03-17T17:13:15.869Z,4.78
2023-03-17T17:15:43.494Z,5.00
2023-03-17T17:18:18.583Z,5.35
2023-03-17T17:20:46.293Z,6.20
2023-03-17T17:23:17.160Z,6.53
2023-03-17T17:25:45.323Z,8.43
2023-03-17T17:28:14.817Z,8.50
2023-03-17T17:30:45.216Z,8.88
2023-03-17T17:33:12.743Z,9.90
2023-03-17T17:35:40.575Z,9.50
2023-03-17T17:38:16.902Z,10.52
2023-03-17T17:40:44.365Z,11.48
2023-03-17T17:43:12.219Z,10.27
2023-03-17T17:45:39.872Z,11.20
2023-03-17T17:48:07.338Z,9.27
2023-03-17T17:50:35.034Z,10.13
2023-03-17T17:53:05.654Z,8.77
2023-03-17T17:55:33.894Z,12.25
2023-03-17T17:58:01.652Z,9.93
2023-03-17T18:00:30.196Z,10.02
2023-03-17T18:02:57.992Z,10.13
2023-03-17T18:05:25.676Z,11.32
2023-03-17T18:07:53.335Z,10.45
2023-03-17T18:10:24.007Z,10.18
2023-03-17T18:12:52.245Z,10.35
2023-03-17T18:15:23.480Z,11.00
2023-03-17T18:17:51.535Z,11.23
2023-03-17T18:20:21.612Z,11.23
2023-03-17T18:22:49.663Z,10.75
2023-03-17T18:25:18.056Z,11.10
2023-03-17T18:27:47.082Z,11.68
2023-03-17T18:30:23.323Z,12.80
2023-03-17T18:32:53.087Z,19.83
2023-03-17T18:35:22.288Z,22.02
2023-03-17T18:37:50.815Z,20.65
2023-03-17T18:40:32.205Z,20.65
2023-03-17T18:42:59.644Z,23.67
2023-03-17T18:45:27.371Z,23.30
2023-03-17T18:47:54.722Z,19.77
2023-03-17T18:50:22.404Z,19.90
2023-03-17T18:52:50.649Z,21.42
2023-03-17T18:55:18.333Z,20.20
2023-03-17T18:57:46.422Z,19.50
2023-03-17T19:00:16.406Z,18.12
2023-03-17T19:02:43.761Z,18.42
2023-03-17T19:05:11.622Z,16.25
2023-03-17T19:07:40.599Z,15.20
2023-03-17T19:10:09.812Z,15.65
2023-03-17T19:12:37.564Z,19.77
2023-03-17T19:15:06.665Z,20.05
2023-03-17T19:17:35.039Z,18.50
2023-03-17T19:20:02.856Z,17.20
2023-03-17T19:22:30.766Z,17.70
2023-03-17T19:24:58.544Z,17.92
2023-03-17T19:27:26.209Z,16.52
2023-03-17T19:29:53.873Z,20.77
2023-03-17T19:32:21.257Z,23.95
2023-03-17T19:34:48.926Z,17.90
2023-03-17T19:37:16.869Z,16.33
2023-03-17T19:39:44.758Z,15.10
2023-03-17T19:42:12.595Z,16.40
2023-03-17T19:44:40.527Z,15.05
2023-03-17T19:47:08.451Z,15.88
2023-03-17T19:49:37.393Z,15.82
2023-03-17T19:52:06.552Z,15.32
2023-03-17T19:54:34.418Z,14.90
2023-03-17T19:57:01.858Z,15.52
2023-03-17T19:59:29.573Z,14.87
2023-03-17T20:01:57.118Z,14.73
2023-03-17T20:04:24.954Z,14.52
2023-03-17T20:06:55.478Z,13.02
2023-03-17T20:09:26.943Z,13.00
2023-03-17T20:11:56.046Z,13.77
2023-03-17T20:14:24.015Z,12.07
2023-03-17T20:16:51.952Z,12.60
2023-03-17T20:19:19.668Z,13.48
2023-03-17T20:21:47.012Z,15.02
2023-03-17T20:24:14.817Z,13.57
2023-03-17T20:26:43.428Z,14.30
2023-03-17T20:29:13.301Z,13.48
2023-03-17T20:31:41.936Z,14.30
2023-03-17T20:34:10.131Z,13.90
2023-03-17T20:36:42.122Z,13.93
2023-03-17T20:39:13.338Z,14.73
2023-03-17T20:41:41.310Z,14.07
2023-03-17T20:44:09.016Z,12.60
2023-03-17T20:46:36.768Z,13.18
2023-03-17T20:49:05.646Z,13.85
2023-03-17T20:51:33.944Z,14.70
2023-03-17T20:54:02.428Z,14.35
2023-03-17T20:56:30.806Z,14.65
2023-03-17T20:58:58.684Z,15.23
2023-03-17T21:01:27.017Z,15.38
2023-03-17T21:03:54.412Z,14.07
2023-03-17T21:06:23.568Z,15.48
2023-03-17T21:08:52.389Z,15.65
2023-03-17T21:11:20.575Z,14.85
2023-03-17T21:13:47.958Z,16.40
2023-03-17T21:16:21.475Z,16.12
2023-03-17T21:18:48.908Z,16.12
2023-03-17T21:21:17.193Z,14.50
2023-03-17T21:23:45.404Z,14.93
2023-03-17T21:26:14.325Z,14.82
2023-03-17T21:28:42.558Z,14.43
2023-03-17T21:31:10.717Z,13.23
2023-03-17T21:33:38.384Z,11.80
2023-03-17T21:36:06.654Z,10.88
2023-03-17T21:38:34.290Z,11.15
2023-03-17T21:41:22.635Z,10.70
2023-03-17T21:43:50.485Z,9.27
2023-03-17T21:46:17.879Z,9.68
2023-03-17T21:48:45.473Z,9.82
2023-03-17T21:51:13.193Z,9.75
2023-03-17T21:53:40.787Z,9.55
2023-03-17T21:56:08.708Z,10.40
2023-03-17T21:58:36.567Z,9.80
2023-03-17T22:01:04.356Z,10.35
2023-03-17T22:03:32.825Z,9.65
2023-03-17T22:06:00.499Z,10.00
2023-03-17T22:08:28.686Z,10.35
2023-03-17T22:10:56.348Z,10.52
2023-03-17T22:13:24.021Z,9.23
2023-03-17T22:15:52.459Z,7.50
2023-03-17T22:18:20.382Z,8.43
2023-03-17T22:20:47.755Z,8.00
2023-03-17T22:23:15.207Z,8.20
2023-03-17T22:25:42.849Z,8.10
2023-03-17T22:28:10.230Z,8.38
2023-03-17T22:30:41.315Z,8.68
2023-03-17T22:33:09.419Z,8.25
2023-03-17T22:35:37.958Z,8.73
2023-03-17T22:38:06.385Z,7.95
2023-03-17T22:40:34.613Z,7.85
2023-03-17T22:43:02.777Z,7.80
2023-03-17T22:45:30.423Z,7.40
2023-03-17T22:47:58.044Z,7.30
2023-03-17T22:50:25.434Z,7.12
2023-03-17T22:52:52.793Z,7.07
2023-03-17T22:55:20.505Z,7.60
2023-03-17T22:57:47.845Z,5.75
2023-03-17T23:00:16.777Z,5.47
2023-03-17T23:02:44.954Z,5.78
2023-03-17T23:05:13.634Z,5.60
2023-03-17T23:07:50.510Z,5.62
2023-03-17T23:10:24.682Z,6.07
2023-03-17T23:12:52.158Z,6.32
2023-03-17T23:15:20.893Z,6.68
2023-03-17T23:17:48.729Z,7.50
2023-03-17T23:20:16.618Z,8.52
2023-03-17T23:22:44.327Z,8.13
2023-03-17T23:25:13.617Z,7.18
2023-03-17T23:27:41.406Z,7.00
2023-03-17T23:30:11.706Z,7.28
2023-03-17T23:32:40.661Z,8.27
2023-03-17T23:35:10.164Z,9.18
2023-03-17T23:37:37.795Z,13.60
2023-03-17T23:40:09.548Z,14.05
2023-03-17T23:42:37.015Z,11.98
2023-03-17T23:45:05.045Z,9.68
2023-03-17T23:47:32.436Z,10.13
2023-03-17T23:49:59.861Z,8.88
2023-03-17T23:52:27.458Z,9.20
2023-03-17T23:54:54.895Z,9.18
2023-03-17T23:57:22.755Z,8.68
2023-03-17T23:59:50.557Z,8.93
